Time;durP1;ratioP1;P1;durP2;ratioP2;P2;SDS_P1;SDS_P2;PMS_P1;PMS_P2;Temp;Humidity;BMP_temperature;BMP_pressure;BME280_temperature;BME280_humidity;BME280_pressure;Samples;Min_cycle;Max_cycle;Signal;HPM_P1;HPM_P2
2023/05/08 00:02:17;;;;;;;4.00;0.95;;;16.50;99.90;;;;;;5004959;28;20046;-77
2023/05/08 00:04:44;;;;;;;1.63;1.33;;;16.50;99.90;;;;;;5003707;28;20070;-76
2023/05/08 00:07:11;;;;;;;1.65;1.55;;;16.50;99.90;;;;;;4997005;28;20046;-76
2023/05/08 00:09:38;;;;;;;5.50;1.55;;;16.50;99.90;;;;;;5000215;28;20442;-77
2023/05/08 00:12:04;;;;;;;1.95;1.33;;;16.50;99.90;;;;;;5009869;28;20049;-76
2023/05/08 00:14:31;;;;;;;1.35;1.00;;;16.50;99.90;;;;;;5006722;28;20104;-77
2023/05/08 00:16:58;;;;;;;2.88;1.30;;;16.50;99.90;;;;;;5005734;28;20048;-76
2023/05/08 00:19:25;;;;;;;2.45;1.20;;;16.60;99.90;;;;;;5002601;28;20042;-76
2023/05/08 00:21:51;;;;;;;0.95;0.95;;;16.60;99.90;;;;;;4997968;28;20043;-76
2023/05/08 00:24:18;;;;;;;1.33;1.23;;;16.50;99.90;;;;;;4999803;28;20046;-76
2023/05/08 00:26:45;;;;;;;1.85;1.27;;;16.60;99.90;;;;;;5000063;28;20042;-76
2023/05/08 00:29:12;;;;;;;1.55;1.05;;;16.60;99.90;;;;;;5003444;28;20052;-77
2023/05/08 00:31:38;;;;;;;1.13;0.85;;;16.60;99.90;;;;;;5010258;28;20041;-76
2023/05/08 00:34:05;;;;;;;3.00;1.13;;;16.60;99.90;;;;;;5007707;28;20795;-75
2023/05/08 00:36:32;;;;;;;3.97;1.10;;;16.60;99.90;;;;;;4996626;28;20494;-76
2023/05/08 00:38:58;;;;;;;4.45;1.25;;;16.60;99.90;;;;;;4999633;28;20125;-77
2023/05/08 00:41:25;;;;;;;4.38;1.02;;;16.60;99.90;;;;;;4998523;28;20499;-76
2023/05/08 00:43:52;;;;;;;1.42;1.05;;;16.50;99.90;;;;;;5010014;28;20406;-75
2023/05/08 00:46:19;;;;;;;1.95;1.00;;;16.50;99.90;;;;;;5030953;23;20042;-77
2023/05/08 00:48:46;;;;;;;1.33;1.08;;;16.50;99.90;;;;;;5040855;28;20053;-77
2023/05/08 00:51:14;;;;;;;2.35;1.23;;;16.60;99.90;;;;;;5042949;28;20053;-77
2023/05/08 00:53:42;;;;;;;2.47;0.82;;;16.60;99.90;;;;;;5040504;28;20393;-77
2023/05/08 00:56:14;;;;;;;1.90;0.98;;;16.60;99.90;;;;;;5039682;28;20516;-77
2023/05/08 00:58:42;;;;;;;1.13;1.00;;;16.60;99.90;;;;;;5000011;28;20586;-77
2023/05/08 01:01:10;;;;;;;2.08;1.10;;;16.60;99.90;;;;;;5002775;28;20046;-77
2023/05/08 01:03:37;;;;;;;1.33;1.00;;;16.60;99.90;;;;;;5001614;28;20046;-78
2023/05/08 01:06:05;;;;;;;1.52;0.98;;;16.60;99.90;;;;;;5002158;28;20057;-77
2023/05/08 01:08:32;;;;;;;2.13;1.05;;;16.60;99.90;;;;;;5003794;28;20053;-78
2023/05/08 01:11:11;;;;;;;1.77;1.33;;;16.60;99.90;;;;;;5009920;28;20425;-78
2023/05/08 01:14:14;;;;;;;1.92;1.38;;;16.60;99.90;;;;;;5001039;28;20136;-78
2023/05/08 01:16:45;;;;;;;3.35;1.10;;;16.60;99.90;;;;;;4980867;28;20050;-77
2023/05/08 01:19:15;;;;;;;1.15;1.02;;;16.60;99.90;;;;;;5000524;28;20493;-78
2023/05/08 01:22:25;;;;;;;1.38;1.10;;;16.60;99.90;;;;;;5011417;28;20124;-78
2023/05/08 01:25:30;;;;;;;2.30;1.02;;;16.60;99.90;;;;;;5000329;28;20057;-78
2023/05/08 01:28:12;;;;;;;1.20;1.10;;;16.50;99.90;;;;;;5002323;28;20046;-78
2023/05/08 01:31:04;;;;;;;2.28;1.15;;;16.60;99.90;;;;;;5000225;28;20232;-78
2023/05/08 01:33:49;;;;;;;1.65;1.40;;;16.60;99.90;;;;;;4999998;28;20517;-78
2023/05/08 01:36:58;;;;;;;1.13;1.00;;;16.60;99.90;;;;;;4999805;28;20058;-77
2023/05/08 01:39:48;;;;;;;2.83;1.00;;;16.60;99.90;;;;;;5002323;28;20057;-78
2023/05/08 01:42:27;;;;;;;;;;;16.60;99.90;;;;;;5002713;28;20121;-78
2023/05/08 01:44:59;;;;;;;2.05;1.17;;;16.60;99.90;;;;;;5001901;28;20393;-78
2023/05/08 01:47:29;;;;;;;1.40;1.13;;;16.60;99.90;;;;;;4999565;28;20129;-77
2023/05/08 01:50:20;;;;;;;1.75;1.30;;;16.60;99.90;;;;;;5005487;28;20058;-78
2023/05/08 01:52:51;;;;;;;1.17;1.10;;;16.60;99.90;;;;;;5000457;28;20052;-77
2023/05/08 01:55:30;;;;;;;4.30;1.23;;;16.60;99.90;;;;;;5000898;28;20057;-78
2023/05/08 01:57:58;;;;;;;1.50;1.08;;;16.60;99.90;;;;;;5006460;28;20052;-78
2023/05/08 02:00:27;;;;;;;1.92;1.10;;;16.60;99.90;;;;;;5001091;28;20129;-78
2023/05/08 02:02:55;;;;;;;2.17;1.20;;;16.60;99.90;;;;;;5002546;28;20259;-78
2023/05/08 02:05:24;;;;;;;1.50;1.15;;;16.60;99.90;;;;;;4999793;28;20061;-78
2023/05/08 02:07:52;;;;;;;3.60;0.88;;;16.60;99.90;;;;;;5001654;28;20053;-77
2023/05/08 02:10:21;;;;;;;1.67;1.08;;;16.60;99.90;;;;;;5001856;28;20549;-77
2023/05/08 02:12:48;;;;;;;1.30;1.20;;;16.60;99.90;;;;;;5004985;28;20050;-78
2023/05/08 02:15:17;;;;;;;2.15;1.23;;;16.60;99.90;;;;;;5001982;28;20050;-77
2023/05/08 02:17:47;;;;;;;1.80;1.20;;;16.60;99.90;;;;;;5002413;28;20104;-78
2023/05/08 02:20:15;;;;;;;1.27;1.17;;;16.60;99.90;;;;;;5000106;28;20058;-78
2023/05/08 02:22:43;;;;;;;1.30;1.20;;;16.60;99.90;;;;;;5003250;28;20046;-77
2023/05/08 02:25:13;;;;;;;1.33;1.23;;;16.60;99.90;;;;;;5001073;28;20054;-78
2023/05/08 02:27:45;;;;;;;2.58;1.60;;;16.60;99.90;;;;;;5001770;28;20133;-77
2023/05/08 02:30:14;;;;;;;1.15;0.90;;;16.60;99.90;;;;;;5006150;28;20046;-77
2023/05/08 02:32:46;;;;;;;1.40;1.30;;;16.60;99.90;;;;;;5003769;28;20558;-77
2023/05/08 02:35:16;;;;;;;3.88;1.40;;;16.60;99.90;;;;;;5003126;28;20054;-76
2023/05/08 02:37:54;;;;;;;2.13;1.40;;;16.60;99.90;;;;;;5003765;28;20088;-77
2023/05/08 02:40:25;;;;;;;2.50;1.20;;;16.60;99.90;;;;;;5014355;28;20054;-77
2023/05/08 02:42:52;;;;;;;;;;;16.60;99.90;;;;;;5004434;28;20050;-77
2023/05/08 02:45:19;;;;;;;1.30;1.17;;;16.60;99.90;;;;;;5004758;28;19921;-77
2023/05/08 02:48:09;;;;;;;1.83;1.40;;;16.60;99.90;;;;;;5003739;28;20050;-76
2023/05/08 02:50:59;;;;;;;3.55;1.58;;;16.60;99.90;;;;;;4987717;28;20057;-78
2023/05/08 02:53:34;;;;;;;4.78;1.67;;;16.60;99.90;;;;;;5008708;28;20046;-77
2023/05/08 02:56:15;;;;;;;1.88;1.42;;;16.60;99.90;;;;;;5010338;28;20088;-77
2023/05/08 02:58:47;;;;;;;1.40;1.27;;;16.60;99.90;;;;;;5007247;28;20046;-77
2023/05/08 03:01:32;;;;;;;2.70;1.30;;;16.60;99.90;;;;;;4994502;28;20133;-77
2023/05/08 03:04:04;;;;;;;1.23;1.13;;;16.60;99.90;;;;;;5006451;28;20437;-77
2023/05/08 03:06:40;;;;;;;3.17;1.17;;;16.60;99.90;;;;;;5001124;28;20061;-77
2023/05/08 03:09:13;;;;;;;2.03;1.40;;;16.60;99.90;;;;;;5009841;28;20121;-76
2023/05/08 03:11:43;;;;;;;3.63;1.70;;;16.60;99.90;;;;;;5003928;28;20089;-77
2023/05/08 03:14:13;;;;;;;2.97;1.30;;;16.50;99.90;;;;;;5004316;28;20054;-76
2023/05/08 03:16:43;;;;;;;1.67;1.40;;;16.50;99.90;;;;;;5002193;28;20074;-76
2023/05/08 03:19:19;;;;;;;3.55;1.38;;;16.50;99.90;;;;;;5003589;28;20053;-77
2023/05/08 03:21:50;;;;;;;2.13;1.30;;;16.50;99.90;;;;;;5001956;28;20061;-77
2023/05/08 03:24:19;;;;;;;2.38;1.50;;;16.40;99.90;;;;;;5004992;28;20111;-76
2023/05/08 03:26:46;;;;;;;4.53;1.33;;;16.50;99.90;;;;;;5004089;28;20161;-77
2023/05/08 03:29:14;;;;;;;1.58;1.13;;;16.50;99.90;;;;;;4985695;28;20509;-78
2023/05/08 03:31:42;;;;;;;1.30;1.20;;;16.50;99.90;;;;;;5001998;28;20144;-77
2023/05/08 03:34:11;;;;;;;1.92;1.20;;;16.50;99.90;;;;;;5003324;28;20058;-77
2023/05/08 03:36:39;;;;;;;1.90;1.50;;;16.50;99.90;;;;;;5003853;28;20145;-76
2023/05/08 03:39:06;;;;;;;2.90;1.50;;;16.50;99.90;;;;;;5002661;28;20050;-77
2023/05/08 03:41:33;;;;;;;1.77;1.10;;;16.50;99.90;;;;;;5003753;28;20052;-77
2023/05/08 03:44:02;;;;;;;1.80;1.40;;;16.50;99.90;;;;;;5003745;28;20054;-76
2023/05/08 03:46:30;;;;;;;4.18;1.45;;;16.50;99.90;;;;;;5001273;28;20595;-77
2023/05/08 03:49:01;;;;;;;2.40;1.20;;;16.50;99.90;;;;;;5002488;28;20068;-77
2023/05/08 03:51:28;;;;;;;;;;;16.50;99.90;;;;;;5003992;28;20086;-77
2023/05/08 03:53:54;;;;;;;1.52;1.42;;;16.40;99.90;;;;;;5011630;28;19957;-76
2023/05/08 03:56:21;;;;;;;1.50;1.40;;;16.40;99.90;;;;;;5002025;28;20080;-77
2023/05/08 03:59:38;;;;;;;1.50;1.40;;;16.40;99.90;;;;;;5012038;28;20536;-77
2023/05/08 04:02:42;;;;;;;3.55;1.50;;;16.40;99.90;;;;;;4992867;28;20065;-77
2023/05/08 04:05:33;;;;;;;4.63;1.45;;;16.40;99.90;;;;;;5002608;28;20050;-77
2023/05/08 04:08:04;;;;;;;1.30;1.20;;;16.40;99.90;;;;;;5003061;28;20082;-77
2023/05/08 04:10:50;;;;;;;4.10;2.15;;;16.40;99.90;;;;;;5000911;28;20502;-77
2023/05/08 04:13:27;;;;;;;4.80;1.83;;;16.40;99.90;;;;;;5001333;28;20050;-77
2023/05/08 04:16:06;;;;;;;1.73;1.60;;;16.40;99.90;;;;;;5008620;28;20066;-77
2023/05/08 04:18:36;;;;;;;2.45;1.67;;;16.40;99.90;;;;;;5000961;28;20455;-77
2023/05/08 04:21:09;;;;;;;1.67;1.50;;;16.40;99.90;;;;;;5002959;28;20046;-77
2023/05/08 04:23:39;;;;;;;1.55;1.45;;;16.40;99.90;;;;;;5004972;28;20412;-78
2023/05/08 04:26:07;;;;;;;1.60;1.40;;;16.40;99.90;;;;;;5000700;28;20062;-77
2023/05/08 04:28:34;;;;;;;1.67;1.48;;;16.40;99.90;;;;;;5002481;28;20128;-77
2023/05/08 04:31:03;;;;;;;3.75;1.50;;;16.40;99.90;;;;;;5002448;28;20576;-77
2023/05/08 04:33:30;;;;;;;1.58;1.48;;;16.40;99.90;;;;;;5000331;28;20506;-77
2023/05/08 04:36:00;;;;;;;3.08;1.70;;;16.40;99.90;;;;;;5002905;28;20060;-77
2023/05/08 04:38:27;;;;;;;2.13;1.85;;;16.50;99.90;;;;;;5000784;28;20052;-77
2023/05/08 04:40:54;;;;;;;4.50;1.65;;;16.40;99.90;;;;;;5007518;28;20137;-77
2023/05/08 04:43:21;;;;;;;4.55;1.58;;;16.50;99.90;;;;;;5011554;28;20406;-77
2023/05/08 04:45:48;;;;;;;1.58;1.33;;;16.40;99.90;;;;;;4984156;28;20058;-77
2023/05/08 04:48:15;;;;;;;2.22;1.58;;;16.40;99.90;;;;;;5002232;28;20069;-77
2023/05/08 04:50:41;;;;;;;3.13;1.58;;;16.50;99.90;;;;;;5010728;28;20467;-77
2023/05/08 04:53:08;;;;;;;2.03;1.77;;;16.50;99.90;;;;;;4999653;28;20058;-77
2023/05/08 04:55:35;;;;;;;2.65;2.45;;;16.50;99.90;;;;;;5003369;28;20049;-77
2023/05/08 04:58:01;;;;;;;6.20;2.70;;;16.40;99.90;;;;;;5000766;28;20453;-77
2023/05/08 05:00:28;;;;;;;2.10;1.88;;;16.50;99.90;;;;;;5001779;28;20057;-76
2023/05/08 05:02:55;;;;;;;2.70;1.70;;;16.50;99.90;;;;;;5002011;28;20081;-77
2023/05/08 05:05:22;;;;;;;2.78;1.73;;;16.40;99.90;;;;;;4999959;28;20057;-77
2023/05/08 05:07:49;;;;;;;1.95;1.83;;;16.40;99.90;;;;;;4999956;28;20052;-76
2023/05/08 05:10:15;;;;;;;3.33;2.15;;;16.40;99.90;;;;;;5002394;28;20144;-77
2023/05/08 05:12:42;;;;;;;3.05;2.22;;;16.50;99.90;;;;;;5001693;28;20056;-77
2023/05/08 05:15:10;;;;;;;3.88;2.70;;;16.50;99.90;;;;;;5000390;28;20050;-77
2023/05/08 05:17:37;;;;;;;2.67;2.10;;;16.50;99.90;;;;;;5003017;28;20059;-77
2023/05/08 05:20:06;;;;;;;5.53;2.30;;;16.50;99.90;;;;;;5009222;28;20644;-77
2023/05/08 05:22:33;;;;;;;4.00;2.25;;;16.50;99.90;;;;;;5001907;28;20042;-77
2023/05/08 05:24:59;;;;;;;3.15;2.38;;;16.50;99.90;;;;;;5003191;28;20519;-77
2023/05/08 05:27:26;;;;;;;3.78;2.17;;;16.50;99.90;;;;;;4999307;28;20046;-77
2023/05/08 05:29:53;;;;;;;6.03;3.65;;;16.50;99.90;;;;;;5002487;28;20053;-78
2023/05/08 05:32:20;;;;;;;4.15;2.45;;;16.50;99.90;;;;;;5009124;28;20096;-77
2023/05/08 05:34:46;;;;;;;3.60;2.10;;;16.50;99.90;;;;;;5001765;28;20058;-77
2023/05/08 05:37:13;;;;;;;3.67;2.78;;;16.50;99.90;;;;;;5003547;28;20064;-76
2023/05/08 05:39:40;;;;;;;4.55;2.50;;;16.50;99.90;;;;;;4999388;28;20104;-76
2023/05/08 05:42:07;;;;;;;3.67;2.92;;;16.60;99.90;;;;;;5009418;28;20074;-76
2023/05/08 05:44:33;;;;;;;4.50;3.10;;;16.60;99.90;;;;;;5000558;28;20057;-77
2023/05/08 05:47:00;;;;;;;3.67;3.13;;;16.60;99.90;;;;;;5001630;28;20053;-76
2023/05/08 05:49:27;;;;;;;4.68;2.90;;;16.60;99.90;;;;;;5003806;28;20080;-77
2023/05/08 05:51:53;;;;;;;5.63;3.13;;;16.60;99.90;;;;;;4999414;28;20058;-76
2023/05/08 05:54:20;;;;;;;5.63;3.53;;;16.60;99.90;;;;;;5001681;28;20058;-77
2023/05/08 05:56:47;;;;;;;3.42;3.10;;;16.60;99.90;;;;;;5001185;28;20050;-77
2023/05/08 05:59:14;;;;;;;2.95;2.65;;;16.60;99.90;;;;;;5000566;28;20062;-76
2023/05/08 06:01:40;;;;;;;7.00;2.85;;;16.70;99.90;;;;;;5002674;28;20050;-77
2023/05/08 06:04:07;;;;;;;3.20;2.70;;;16.70;99.90;;;;;;5010149;28;20077;-77
2023/05/08 06:06:34;;;;;;;2.80;2.60;;;16.70;99.90;;;;;;5003926;28;20445;-76
2023/05/08 06:09:01;;;;;;;2.97;2.65;;;16.70;99.90;;;;;;5012417;28;20054;-77
2023/05/08 06:11:27;;;;;;;2.83;2.63;;;16.70;99.90;;;;;;5013823;28;20109;-76
2023/05/08 06:13:54;;;;;;;4.22;3.00;;;16.70;99.90;;;;;;5008861;28;20137;-76
2023/05/08 06:16:23;;;;;;;3.47;3.17;;;16.70;99.90;;;;;;5004472;28;20046;-77
2023/05/08 06:18:50;;;;;;;5.03;3.22;;;16.70;99.90;;;;;;5010115;28;20062;-76
2023/05/08 06:21:17;;;;;;;4.88;2.92;;;16.70;99.90;;;;;;5016943;28;20132;-76
2023/05/08 06:23:43;;;;;;;4.65;2.97;;;16.80;99.90;;;;;;5015368;28;20049;-77
2023/05/08 06:26:10;;;;;;;2.63;2.40;;;16.80;99.90;;;;;;5008612;28;20121;-77
2023/05/08 06:28:37;;;;;;;4.30;2.70;;;16.80;99.90;;;;;;5011528;28;20386;-76
2023/05/08 06:31:03;;;;;;;4.65;2.75;;;16.80;99.90;;;;;;5010142;28;20403;-76
2023/05/08 06:33:30;;;;;;;3.85;3.10;;;16.90;99.90;;;;;;5002988;28;20050;-76
2023/05/08 06:35:57;;;;;;;4.45;2.72;;;16.90;99.90;;;;;;5011401;28;20054;-77
2023/05/08 06:38:23;;;;;;;3.00;2.78;;;16.90;99.90;;;;;;5013918;28;20046;-76
2023/05/08 06:40:51;;;;;;;4.80;2.88;;;17.00;99.90;;;;;;5006131;28;20057;-76
2023/05/08 06:43:17;;;;;;;2.40;2.20;;;17.00;99.90;;;;;;5013798;28;20521;-77
2023/05/08 06:45:44;;;;;;;2.63;2.42;;;17.10;99.90;;;;;;5004577;28;20042;-77
2023/05/08 06:48:11;;;;;;;3.10;2.40;;;17.10;99.90;;;;;;5047754;23;20046;-77
2023/05/08 06:50:39;;;;;;;4.47;2.75;;;17.10;99.90;;;;;;5034553;28;20060;-77
2023/05/08 06:53:06;;;;;;;2.35;2.15;;;17.20;99.90;;;;;;5033115;28;20071;-77
2023/05/08 06:55:33;;;;;;;2.53;1.98;;;17.20;99.90;;;;;;5033219;28;20077;-77
2023/05/08 06:58:00;;;;;;;2.15;1.83;;;17.30;99.90;;;;;;5021529;28;20058;-77
2023/05/08 07:00:27;;;;;;;2.22;1.60;;;17.40;99.90;;;;;;5013508;28;20142;-77
2023/05/08 07:02:53;;;;;;;2.67;1.90;;;17.50;99.90;;;;;;5013304;28;20108;-77
2023/05/08 07:05:20;;;;;;;2.00;1.48;;;17.50;99.90;;;;;;5010274;28;20042;-77
2023/05/08 07:07:47;;;;;;;5.10;1.95;;;17.60;99.90;;;;;;5010947;28;20040;-77
2023/05/08 07:10:15;;;;;;;2.83;1.58;;;17.70;99.90;;;;;;5007762;28;20413;-77
2023/05/08 07:12:43;;;;;;;1.50;1.40;;;17.80;99.90;;;;;;5011746;28;20064;-77
2023/05/08 07:15:10;;;;;;;3.35;2.25;;;17.90;99.90;;;;;;5009956;28;20539;-77
2023/05/08 07:17:50;;;;;;;2.50;2.30;;;18.00;99.90;;;;;;5012425;28;20060;-77
2023/05/08 07:20:17;;;;;;;2.38;2.17;;;18.10;99.90;;;;;;5013342;28;20046;-77
2023/05/08 07:22:44;;;;;;;3.53;1.92;;;18.20;99.90;;;;;;5009352;28;20124;-76
2023/05/08 07:25:11;;;;;;;3.70;1.63;;;18.20;99.90;;;;;;5004134;28;20048;-78
2023/05/08 07:27:38;;;;;;;2.45;2.15;;;18.20;99.90;;;;;;5008406;28;20052;-78
2023/05/08 07:30:05;;;;;;;2.17;1.90;;;18.20;99.90;;;;;;5007187;28;20051;-77
2023/05/08 07:32:32;;;;;;;4.03;1.75;;;18.20;99.90;;;;;;5010584;28;20057;-77
2023/05/08 07:35:01;;;;;;;2.25;1.95;;;18.10;99.90;;;;;;5011595;28;20061;-77
2023/05/08 07:37:28;;;;;;;1.70;1.60;;;18.10;99.90;;;;;;5009276;28;20052;-77
2023/05/08 07:39:55;;;;;;;2.00;1.88;;;18.10;99.90;;;;;;5005634;28;20046;-76
2023/05/08 07:42:22;;;;;;;2.03;1.80;;;18.10;99.90;;;;;;5012221;28;20100;-76
2023/05/08 07:44:49;;;;;;;2.45;2.13;;;18.10;99.90;;;;;;5008047;28;20523;-76
2023/05/08 07:47:21;;;;;;;2.30;1.83;;;18.10;99.90;;;;;;5012038;28;20266;-76
2023/05/08 07:49:48;;;;;;;1.70;1.60;;;18.20;99.90;;;;;;5008208;28;20049;-76
2023/05/08 07:52:14;;;;;;;1.60;1.50;;;18.20;99.90;;;;;;5012655;28;20100;-76
2023/05/08 07:54:41;;;;;;;4.20;1.58;;;18.30;99.90;;;;;;5005008;28;20050;-76
2023/05/08 07:57:08;;;;;;;3.25;1.60;;;18.30;99.90;;;;;;5003656;28;20124;-76
2023/05/08 07:59:34;;;;;;;2.38;1.73;;;18.30;99.90;;;;;;5008122;28;20046;-76
2023/05/08 08:02:01;;;;;;;4.75;1.85;;;18.30;99.90;;;;;;5003975;28;20053;-76
2023/05/08 08:04:28;;;;;;;4.03;2.40;;;18.30;99.90;;;;;;5003343;28;20041;-76
2023/05/08 08:06:55;;;;;;;2.90;2.65;;;18.40;99.90;;;;;;5011365;28;20717;-76
2023/05/08 08:09:21;;;;;;;3.08;2.45;;;18.40;99.90;;;;;;5008591;28;20048;-75
2023/05/08 08:11:48;;;;;;;4.40;4.00;;;18.50;99.90;;;;;;5011039;28;20411;-76
2023/05/08 08:14:15;;;;;;;2.85;2.65;;;18.60;99.90;;;;;;5008646;28;20133;-76
2023/05/08 08:16:42;;;;;;;2.95;2.65;;;18.60;99.90;;;;;;5008827;28;20042;-75
2023/05/08 08:19:09;;;;;;;4.50;2.65;;;18.70;99.90;;;;;;5006552;28;20440;-76
2023/05/08 08:21:41;;;;;;;4.63;2.40;;;18.80;99.90;;;;;;5011688;28;20033;-76
2023/05/08 08:24:08;;;;;;;6.93;2.25;;;18.90;99.90;;;;;;5005382;28;20937;-76
2023/05/08 08:26:35;;;;;;;2.78;2.33;;;19.00;99.90;;;;;;5011045;28;20402;-76
2023/05/08 08:29:02;;;;;;;2.65;2.08;;;19.00;99.90;;;;;;5008629;28;20050;-76
2023/05/08 08:31:29;;;;;;;2.38;1.75;;;19.20;99.90;;;;;;5008781;28;20041;-76
2023/05/08 08:33:56;;;;;;;1.52;1.42;;;19.20;99.90;;;;;;5002699;28;20042;-76
2023/05/08 08:36:22;;;;;;;1.80;1.30;;;19.30;99.90;;;;;;5011121;28;20457;-76
2023/05/08 08:38:49;;;;;;;1.23;1.05;;;19.40;99.90;;;;;;5004442;28;20524;-76
2023/05/08 08:41:16;;;;;;;1.65;0.90;;;19.50;99.90;;;;;;5010772;28;20049;-76
2023/05/08 08:43:43;;;;;;;1.35;1.00;;;19.50;99.90;;;;;;5007696;28;20046;-76
2023/05/08 08:46:13;;;;;;;2.35;1.40;;;19.60;99.90;;;;;;5004735;28;20572;-76
2023/05/08 08:48:45;;;;;;;2.00;0.90;;;19.60;99.90;;;;;;5006169;28;20099;-76
2023/05/08 08:51:27;;;;;;;1.70;0.90;;;19.60;99.90;;;;;;5002475;28;20129;-77
2023/05/08 08:54:10;;;;;;;1.35;0.95;;;19.80;99.90;;;;;;5002505;28;20509;-76
2023/05/08 08:56:41;;;;;;;1.80;0.90;;;19.90;99.90;;;;;;5001885;28;20050;-75
2023/05/08 08:59:10;;;;;;;0.88;0.77;;;19.90;99.90;;;;;;5006326;28;20073;-78
2023/05/08 09:01:39;;;;;;;0.93;0.82;;;20.00;99.90;;;;;;5011052;28;20073;-76
2023/05/08 09:04:07;;;;;;;1.20;1.00;;;20.20;99.90;;;;;;5011742;28;20056;-77
2023/05/08 09:06:36;;;;;;;2.20;0.95;;;20.30;99.90;;;;;;5005557;28;20038;-77
2023/05/08 09:09:03;;;;;;;2.38;1.00;;;20.50;99.90;;;;;;5010890;28;20108;-76
2023/05/08 09:11:30;;;;;;;3.40;0.90;;;20.50;99.90;;;;;;5012763;28;20076;-76
2023/05/08 09:13:58;;;;;;;1.10;0.80;;;20.60;99.90;;;;;;5009240;28;20506;-76
2023/05/08 09:16:27;;;;;;;1.90;1.00;;;20.60;99.90;;;;;;5007404;28;20137;-76
2023/05/08 09:18:54;;;;;;;8.85;1.58;;;20.60;99.90;;;;;;5010929;28;20312;-77
2023/05/08 09:21:23;;;;;;;2.38;1.00;;;20.70;99.90;;;;;;5010955;28;20080;-76
2023/05/08 09:23:55;;;;;;;2.97;0.80;;;20.70;99.90;;;;;;5009570;28;20053;-76
2023/05/08 09:26:37;;;;;;;2.50;0.90;;;20.70;99.90;;;;;;5010637;28;20130;-76
2023/05/08 09:29:16;;;;;;;1.05;0.80;;;20.50;99.90;;;;;;5009168;28;20125;-76
2023/05/08 09:31:45;;;;;;;4.10;0.90;;;20.50;99.90;;;;;;5025658;28;20502;-76
2023/05/08 09:34:27;;;;;;;3.65;1.10;;;20.40;99.90;;;;;;5010288;28;20508;-77
2023/05/08 09:37:10;;;;;;;1.20;1.10;;;20.30;99.90;;;;;;4999861;28;20098;-75
2023/05/08 09:39:42;;;;;;;1.85;0.80;;;20.00;99.90;;;;;;5007775;28;20121;-75
2023/05/08 09:42:08;;;;;;;2.83;1.10;;;19.90;99.90;;;;;;5002243;28;20125;-76
2023/05/08 09:44:45;;;;;;;1.20;0.98;;;19.80;99.90;;;;;;5004380;28;20063;-76
2023/05/08 09:47:17;;;;;;;2.30;1.10;;;19.70;99.90;;;;;;5000500;28;20045;-76
2023/05/08 09:50:03;;;;;;;2.60;1.27;;;19.70;99.90;;;;;;5005600;28;20042;-76
2023/05/08 09:52:31;;;;;;;1.65;1.33;;;19.50;99.90;;;;;;5008626;28;20052;-75
2023/05/08 09:55:08;;;;;;;3.17;1.27;;;19.50;99.90;;;;;;5006206;28;20038;-74
2023/05/08 09:57:38;;;;;;;1.42;1.20;;;19.50;99.90;;;;;;5007269;28;20076;-74
2023/05/08 10:00:07;;;;;;;1.90;1.27;;;19.60;99.90;;;;;;5005508;28;20042;-76
2023/05/08 10:02:35;;;;;;;1.52;1.08;;;19.70;99.90;;;;;;5007696;28;20042;-77
2023/05/08 10:05:21;;;;;;;3.42;1.17;;;19.70;99.90;;;;;;5009507;28;20107;-75
2023/05/08 10:07:48;;;;;;;2.92;1.17;;;19.70;99.90;;;;;;5006687;28;20129;-75
2023/05/08 10:10:25;;;;;;;1.25;1.15;;;19.70;99.90;;;;;;5002477;28;20117;-75
2023/05/08 10:12:57;;;;;;;2.83;0.88;;;19.80;99.90;;;;;;5005298;28;20054;-74
2023/05/08 10:15:28;;;;;;;1.42;0.98;;;19.90;99.90;;;;;;5006758;28;20806;-75
2023/05/08 10:18:04;;;;;;;1.77;1.08;;;19.90;99.90;;;;;;5009093;28;20065;-75
2023/05/08 10:20:33;;;;;;;2.15;0.90;;;19.90;99.90;;;;;;5001203;28;20050;-74
2023/05/08 10:23:00;;;;;;;1.38;0.98;;;20.00;99.90;;;;;;5006549;28;20049;-76
2023/05/08 10:25:31;;;;;;;3.83;0.98;;;19.90;99.90;;;;;;5003495;28;20049;-75
2023/05/08 10:28:30;;;;;;;1.50;0.93;;;19.80;99.90;;;;;;5005546;28;20397;-75
2023/05/08 10:31:02;;;;;;;1.20;1.10;;;19.70;99.90;;;;;;5006305;28;20133;-76
2023/05/08 10:33:32;;;;;;;1.23;0.80;;;19.70;99.90;;;;;;5006291;28;20088;-75
2023/05/08 10:36:00;;;;;;;1.85;1.00;;;19.70;99.90;;;;;;5008209;28;20065;-75
2023/05/08 10:38:27;;;;;;;1.15;1.05;;;19.50;99.90;;;;;;5005330;28;20051;-75
2023/05/08 10:40:57;;;;;;;1.55;0.88;;;19.50;99.90;;;;;;5009010;28;20053;-77
2023/05/08 10:43:24;;;;;;;1.73;1.23;;;19.50;99.90;;;;;;5002424;28;20053;-75
2023/05/08 10:45:53;;;;;;;1.67;0.88;;;19.50;99.90;;;;;;5003325;28;20053;-76
2023/05/08 10:48:27;;;;;;;1.37;1.27;;;19.40;99.90;;;;;;5008561;28;20332;-75
2023/05/08 10:51:06;;;;;;;1.77;1.10;;;19.50;99.90;;;;;;5003022;28;20056;-76
2023/05/08 10:53:39;;;;;;;1.52;1.23;;;19.50;99.90;;;;;;5010096;28;20046;-76
2023/05/08 10:56:06;;;;;;;1.63;0.98;;;19.60;99.90;;;;;;5004028;28;20057;-77
2023/05/08 10:58:36;;;;;;;1.80;1.40;;;19.70;99.90;;;;;;5005503;28;20054;-77
2023/05/08 11:01:09;;;;;;;1.77;1.38;;;19.90;99.90;;;;;;5005410;28;20038;-77
2023/05/08 11:03:42;;;;;;;1.27;1.15;;;19.90;99.90;;;;;;5003835;28;20063;-77
2023/05/08 11:06:09;;;;;;;1.17;1.08;;;20.00;99.90;;;;;;5009022;28;20042;-75
2023/05/08 11:08:47;;;;;;;2.70;1.30;;;20.10;99.90;;;;;;5005502;28;20046;-75
2023/05/08 11:11:32;;;;;;;1.35;1.25;;;20.10;99.90;;;;;;5005457;28;20053;-75
2023/05/08 11:14:10;;;;;;;2.10;1.55;;;20.10;99.90;;;;;;5008778;28;20317;-76
2023/05/08 11:16:52;;;;;;;2.38;1.40;;;20.10;99.90;;;;;;5007389;28;20452;-75
2023/05/08 11:19:20;;;;;;;1.42;1.10;;;20.10;99.90;;;;;;5008360;28;20460;-76
2023/05/08 11:22:20;;;;;;;3.88;1.50;;;20.10;99.90;;;;;;5008094;28;20057;-77
2023/05/08 11:24:53;;;;;;;1.45;1.13;;;20.00;99.90;;;;;;5010206;28;20050;-77
2023/05/08 11:27:36;;;;;;;1.73;1.33;;;20.00;99.90;;;;;;5010818;28;20043;-77
2023/05/08 11:30:22;;;;;;;3.00;1.23;;;20.10;99.90;;;;;;5001235;28;20129;-76
2023/05/08 11:33:12;;;;;;;2.78;1.10;;;20.10;99.90;;;;;;5012798;28;20085;-76
2023/05/08 11:35:45;;;;;;;;;;;20.20;99.90;;;;;;5007760;28;20058;-77
2023/05/08 11:38:18;;;;;;;1.35;1.25;;;20.20;99.90;;;;;;5012197;28;19921;-76
2023/05/08 11:41:06;;;;;;;1.63;1.10;;;20.30;99.90;;;;;;5007735;28;20050;-76
2023/05/08 11:43:34;;;;;;;2.00;0.82;;;20.40;99.90;;;;;;5012432;28;20123;-76
2023/05/08 11:46:03;;;;;;;0.88;0.80;;;20.50;99.90;;;;;;5008269;28;20057;-76
2023/05/08 11:48:31;;;;;;;0.57;0.57;;;20.60;99.90;;;;;;5011990;28;20482;-77
2023/05/08 11:50:59;;;;;;;0.80;0.73;;;20.70;99.90;;;;;;5009748;28;20489;-77
2023/05/08 11:53:26;;;;;;;1.98;0.88;;;20.80;99.90;;;;;;5011944;28;20069;-76
2023/05/08 11:55:53;;;;;;;1.13;0.80;;;21.00;99.90;;;;;;5007629;28;20424;-77
2023/05/08 11:58:21;;;;;;;3.78;0.77;;;21.10;99.90;;;;;;5010575;28;20398;-76
2023/05/08 12:00:48;;;;;;;0.77;0.65;;;21.10;99.90;;;;;;5011274;28;20112;-77
2023/05/08 12:03:21;;;;;;;1.77;0.90;;;21.20;99.90;;;;;;5010049;28;20501;-77
2023/05/08 12:05:49;;;;;;;2.03;1.48;;;21.30;99.90;;;;;;5010411;28;20115;-76
2023/05/08 12:08:17;;;;;;;2.95;1.45;;;21.30;99.90;;;;;;5005966;28;20121;-76
2023/05/08 12:10:55;;;;;;;2.53;1.13;;;21.30;99.90;;;;;;5008517;28;20050;-77
2023/05/08 12:13:28;;;;;;;3.00;1.33;;;21.10;99.90;;;;;;5012609;28;20045;-76
2023/05/08 12:15:58;;;;;;;2.28;1.33;;;20.90;99.90;;;;;;5005663;28;20559;-77
2023/05/08 12:18:27;;;;;;;1.70;1.02;;;20.70;99.90;;;;;;5012743;28;20050;-76
2023/05/08 12:20:59;;;;;;;1.77;1.20;;;20.60;99.90;;;;;;5009055;28;20413;-77
2023/05/08 12:23:28;;;;;;;2.58;1.02;;;20.50;99.90;;;;;;5005502;28;20042;-77
2023/05/08 12:25:58;;;;;;;2.45;1.00;;;20.40;99.90;;;;;;5023158;28;20077;-76
2023/05/08 12:28:25;;;;;;;1.30;1.13;;;20.30;99.90;;;;;;5008512;28;20124;-77
2023/05/08 12:30:52;;;;;;;1.20;1.10;;;20.30;99.90;;;;;;5011306;28;20048;-77
2023/05/08 12:33:20;;;;;;;1.02;0.93;;;20.30;99.90;;;;;;5010456;28;20054;-76
2023/05/08 12:35:46;;;;;;;2.03;1.17;;;20.30;99.90;;;;;;5006753;28;20066;-77
2023/05/08 12:38:13;;;;;;;1.20;0.95;;;20.40;99.90;;;;;;5011466;28;20084;-77
2023/05/08 12:40:54;;;;;;;1.08;0.98;;;20.50;99.90;;;;;;5009655;28;20494;-76
2023/05/08 12:43:31;;;;;;;1.42;1.25;;;20.50;99.90;;;;;;5009374;28;20117;-77
2023/05/08 12:45:58;;;;;;;1.30;1.20;;;20.60;99.90;;;;;;5009228;28;20053;-76
2023/05/08 12:48:26;;;;;;;1.10;1.00;;;20.70;99.90;;;;;;5034176;23;20052;-76
2023/05/08 12:50:53;;;;;;;1.00;0.80;;;20.70;99.90;;;;;;5011959;28;20049;-77
2023/05/08 12:53:20;;;;;;;1.00;0.90;;;20.70;99.90;;;;;;5016131;28;20078;-76
2023/05/08 12:55:53;;;;;;;1.77;0.95;;;20.80;99.90;;;;;;5020603;28;20053;-76
2023/05/08 12:58:24;;;;;;;2.30;0.90;;;20.80;99.90;;;;;;5015252;28;20141;-77
2023/05/08 13:00:52;;;;;;;2.17;1.30;;;20.80;99.90;;;;;;5013977;28;20056;-77
2023/05/08 13:03:27;;;;;;;3.47;1.30;;;20.90;99.90;;;;;;5011691;28;20072;-77
2023/05/08 13:05:56;;;;;;;2.30;0.75;;;21.00;99.90;;;;;;5019879;28;20493;-77
2023/05/08 13:08:36;;;;;;;1.92;0.85;;;21.10;99.90;;;;;;5015885;28;20120;-77